createdAt,value
2022-11-03T00:00:46.920Z,18.57
2022-11-03T00:04:47.174Z,19.83
2022-11-03T00:08:49.887Z,18.67
2022-11-03T00:12:49.976Z,20.73
2022-11-03T00:16:50.450Z,19.37
2022-11-03T00:21:00.332Z,22.13
2022-11-03T00:25:03.351Z,20.87
2022-11-03T00:29:08.836Z,33.10
2022-11-03T00:33:09.275Z,26.20
2022-11-03T00:37:09.510Z,18.37
2022-11-03T00:41:14.532Z,16.20
2022-11-03T00:45:14.719Z,18.03
2022-11-03T00:49:14.935Z,18.70
2022-11-03T00:53:15.016Z,24.73
2022-11-03T00:57:17.693Z,29.70
2022-11-03T01:01:20.731Z,20.63
2022-11-03T01:05:33.374Z,18.63
2022-11-03T01:09:37.943Z,20.93
2022-11-03T01:13:41.251Z,17.87
2022-11-03T01:17:42.597Z,15.80
2022-11-03T01:21:42.752Z,19.47
2022-11-03T01:25:42.921Z,27.63
2022-11-03T01:29:47.003Z,57.90
2022-11-03T01:33:48.244Z,20.87
2022-11-03T01:37:48.330Z,21.37
2022-11-03T01:41:52.389Z,46.20
2022-11-03T01:46:04.820Z,18.03
2022-11-03T01:50:13.078Z,18.57
2022-11-03T01:54:20.793Z,35.87
2022-11-03T01:58:26.371Z,26.10
2022-11-03T02:02:29.990Z,18.60
2022-11-03T02:06:32.819Z,85.30
2022-11-03T02:10:33.216Z,22.37
2022-11-03T02:14:33.354Z,26.77
2022-11-03T02:18:37.758Z,28.57
2022-11-03T02:23:17.611Z,12.03
2022-11-03T02:27:21.150Z,10.17
2022-11-03T02:31:35.228Z,15.90
2022-11-03T02:35:46.473Z,10.83
2022-11-03T02:39:51.595Z,23.07
2022-11-03T02:43:56.111Z,49.70
2022-11-03T02:48:02.448Z,11.00
2022-11-03T02:52:03.605Z,10.73
2022-11-03T02:56:12.880Z,14.40
2022-11-03T03:00:18.732Z,21.03
2022-11-03T03:04:29.319Z,30.27
2022-11-03T03:08:32.708Z,24.17
2022-11-03T03:12:36.013Z,19.07
2022-11-03T03:16:46.134Z,18.70
2022-11-03T03:20:58.374Z,35.27
2022-11-03T03:25:06.685Z,31.67
2022-11-03T03:29:13.427Z,36.50
2022-11-03T03:33:18.865Z,27.97
2022-11-03T03:37:22.180Z,11.73
2022-11-03T03:41:24.752Z,8.77
2022-11-03T03:45:27.315Z,13.27
2022-11-03T03:49:30.743Z,49.93
2022-11-03T03:53:33.610Z,15.57
2022-11-03T03:57:35.319Z,43.77
2022-11-03T04:01:35.629Z,95.83
2022-11-03T04:05:38.444Z,157.57
2022-11-03T04:09:38.519Z,157.17
2022-11-03T04:13:51.182Z,124.30
2022-11-03T04:18:05.230Z,154.53
2022-11-03T04:22:21.564Z,166.90
2022-11-03T04:26:24.689Z,124.47
2022-11-03T04:30:27.040Z,87.23
2022-11-03T04:34:28.251Z,96.77
2022-11-03T04:38:33.174Z,181.67
2022-11-03T04:42:37.690Z,121.23
2022-11-03T04:46:37.883Z,91.23
2022-11-03T04:50:40.667Z,62.77
2022-11-03T04:54:46.211Z,47.03
2022-11-03T04:58:48.102Z,75.27
2022-11-03T05:02:54.921Z,22.50
2022-11-03T05:06:56.942Z,58.27
2022-11-03T05:11:03.016Z,34.87
2022-11-03T05:15:05.411Z,68.07
2022-11-03T05:19:05.621Z,34.77
2022-11-03T05:23:07.379Z,20.37
2022-11-03T05:27:21.824Z,19.70
2022-11-03T05:31:28.600Z,53.50
2022-11-03T05:35:28.736Z,17.77
2022-11-03T05:39:34.488Z,18.10
2022-11-03T05:43:37.190Z,21.23
2022-11-03T05:47:42.523Z,45.17
2022-11-03T05:51:46.562Z,15.33
2022-11-03T05:55:47.183Z,65.70
2022-11-03T05:59:54.260Z,23.57
2022-11-03T06:03:54.664Z,28.80
2022-11-03T06:07:58.351Z,26.33
2022-11-03T06:12:03.776Z,37.70
2022-11-03T06:16:21.111Z,127.00
2022-11-03T06:20:25.291Z,86.07
2022-11-03T06:24:32.607Z,312.63
2022-11-03T06:28:37.854Z,152.37
2022-11-03T06:32:40.649Z,180.93
2022-11-03T06:36:40.829Z,37.13
2022-11-03T06:40:41.240Z,101.87
2022-11-03T06:44:44.468Z,29.67
2022-11-03T06:48:48.116Z,99.50
2022-11-03T06:52:51.680Z,29.70
2022-11-03T06:56:51.924Z,44.70
2022-11-03T07:00:52.707Z,167.43
2022-11-03T07:04:55.710Z,266.40
2022-11-03T07:08:59.289Z,104.13
2022-11-03T07:13:07.210Z,47.10
2022-11-03T07:17:17.775Z,125.37
2022-11-03T07:21:38.833Z,88.00
2022-11-03T07:25:38.965Z,95.03
2022-11-03T07:29:39.228Z,47.23
2022-11-03T07:33:39.501Z,63.73
2022-11-03T07:37:42.376Z,92.77
2022-11-03T07:41:42.533Z,54.80
2022-11-03T07:45:46.055Z,86.83
2022-11-03T07:49:46.303Z,77.57
2022-11-03T07:53:51.494Z,40.43
2022-11-03T07:57:51.623Z,61.30
2022-11-03T08:01:54.800Z,20.57
2022-11-03T08:05:55.024Z,73.43
2022-11-03T08:09:58.312Z,42.53
2022-11-03T08:13:58.614Z,45.70
2022-11-03T08:17:58.734Z,18.90
2022-11-03T08:21:58.930Z,20.00
2022-11-03T08:26:01.647Z,52.23
2022-11-03T08:30:01.743Z,69.47
2022-11-03T08:34:01.844Z,53.20
2022-11-03T08:38:01.967Z,44.80
2022-11-03T08:42:04.954Z,46.90
2022-11-03T08:46:13.839Z,38.67
2022-11-03T08:50:17.814Z,38.97
2022-11-03T08:54:17.913Z,26.93
2022-11-03T08:58:24.048Z,20.30
2022-11-03T09:02:24.324Z,15.03
2022-11-03T09:06:24.584Z,16.50
2022-11-03T09:10:29.993Z,15.20
2022-11-03T09:14:37.330Z,11.20
2022-11-03T09:18:37.696Z,11.87
2022-11-03T09:22:38.054Z,5.83
2022-11-03T09:26:38.512Z,9.47
2022-11-03T09:30:41.514Z,10.03
2022-11-03T09:34:41.999Z,10.03
2022-11-03T09:38:42.715Z,10.43
2022-11-03T09:42:44.214Z,11.67
2022-11-03T09:46:48.156Z,11.40
2022-11-03T09:50:51.342Z,11.67
2022-11-03T09:54:51.857Z,8.57
2022-11-03T09:58:54.484Z,6.90
2022-11-03T10:02:58.581Z,7.63
2022-11-03T10:07:00.125Z,7.10
2022-11-03T10:11:02.989Z,6.67
2022-11-03T10:15:03.256Z,8.85
2022-11-03T10:19:06.013Z,5.97
2022-11-03T10:23:06.741Z,5.50
2022-11-03T10:27:22.654Z,8.18
2022-11-03T10:31:24.309Z,10.00
2022-11-03T10:35:38.278Z,5.88
2022-11-03T10:39:38.461Z,7.45
2022-11-03T10:43:38.624Z,6.15
2022-11-03T10:47:39.003Z,5.20
2022-11-03T10:51:43.177Z,6.95
2022-11-03T10:55:44.546Z,8.93
2022-11-03T10:59:47.300Z,8.43
2022-11-03T11:03:48.490Z,8.38
2022-11-03T11:07:53.956Z,5.90
2022-11-03T11:12:06.225Z,5.15
2022-11-03T11:16:07.343Z,7.18
2022-11-03T11:20:38.636Z,5.65
2022-11-03T11:25:04.201Z,5.00
2022-11-03T11:29:43.145Z,5.88
2022-11-03T11:33:43.232Z,4.28
2022-11-03T11:37:43.612Z,4.90
2022-11-03T11:42:14.152Z,3.78
2022-11-03T11:46:43.445Z,7.47
2022-11-03T11:50:43.788Z,4.82
2022-11-03T11:54:45.645Z,6.03
2022-11-03T11:58:51.420Z,5.35
2022-11-03T12:02:52.554Z,7.07
2022-11-03T12:06:53.016Z,5.38
2022-11-03T12:10:57.640Z,5.75
2022-11-03T12:15:00.449Z,3.83
2022-11-03T12:19:01.263Z,5.25
2022-11-03T12:23:01.382Z,6.80
2022-11-03T12:27:03.595Z,7.75
2022-11-03T12:31:07.132Z,8.85
2022-11-03T12:35:08.748Z,4.90
2022-11-03T12:39:09.129Z,6.75
2022-11-03T12:43:09.523Z,5.13
2022-11-03T12:47:12.626Z,4.75
2022-11-03T12:51:15.724Z,8.50
2022-11-03T12:55:16.163Z,4.93
2022-11-03T12:59:16.468Z,6.55
2022-11-03T13:03:19.300Z,6.10
2022-11-03T13:07:25.801Z,5.50
2022-11-03T13:11:41.829Z,7.95
2022-11-03T13:15:42.150Z,5.10
2022-11-03T13:19:44.960Z,4.95
2022-11-03T13:23:45.262Z,5.07
2022-11-03T13:27:45.555Z,6.68
2022-11-03T13:31:46.134Z,6.85
2022-11-03T13:35:49.024Z,7.68
2022-11-03T13:39:49.314Z,9.13
2022-11-03T13:43:49.458Z,6.18
2022-11-03T13:48:22.422Z,6.25
2022-11-03T13:52:12.731Z,8.10
2022-11-03T13:56:19.198Z,8.20
2022-11-03T14:00:22.624Z,7.10
2022-11-03T14:08:45.876Z,6.60
2022-11-03T14:12:46.299Z,8.70
2022-11-03T14:16:46.463Z,12.02
2022-11-03T14:20:46.874Z,4.95
2022-11-03T14:24:49.695Z,8.07
2022-11-03T14:28:50.069Z,7.10
2022-11-03T14:32:50.210Z,10.90
2022-11-03T14:36:50.513Z,9.32
2022-11-03T14:41:05.838Z,10.13
2022-11-03T14:45:06.057Z,8.97
2022-11-03T14:49:06.522Z,9.77
2022-11-03T14:53:06.802Z,8.90
2022-11-03T14:57:09.859Z,9.20
2022-11-03T15:01:10.211Z,10.93
2022-11-03T15:05:31.841Z,9.60
2022-11-03T15:09:32.019Z,12.10
2022-11-03T15:13:41.527Z,11.33
2022-11-03T15:17:46.174Z,8.17
2022-11-03T15:21:46.493Z,13.40
2022-11-03T15:25:46.896Z,10.30
2022-11-03T15:29:49.697Z,10.53
2022-11-03T15:33:49.798Z,11.03
2022-11-03T15:37:49.986Z,9.20
2022-11-03T15:41:50.414Z,10.13
2022-11-03T15:45:53.275Z,13.00
2022-11-03T15:49:53.333Z,10.97
2022-11-03T15:53:58.525Z,15.03
2022-11-03T15:57:59.125Z,11.67
2022-11-03T16:02:08.630Z,11.33
2022-11-03T16:06:40.202Z,17.07
2022-11-03T16:10:49.689Z,13.63
2022-11-03T16:14:53.580Z,16.23
2022-11-03T16:18:56.356Z,18.07
2022-11-03T16:22:56.438Z,14.53
2022-11-03T16:26:56.566Z,12.80
2022-11-03T16:30:56.632Z,14.40
2022-11-03T16:34:59.525Z,14.30
2022-11-03T16:38:59.811Z,16.27
2022-11-03T16:43:00.132Z,15.63
2022-11-03T16:47:00.293Z,13.40
2022-11-03T16:51:03.126Z,24.33
2022-11-03T16:55:03.273Z,27.90
2022-11-03T16:59:03.404Z,28.13
2022-11-03T17:03:03.516Z,29.80
2022-11-03T17:07:06.238Z,26.27
2022-11-03T17:11:06.360Z,20.93
2022-11-03T17:15:07.235Z,12.50
2022-11-03T17:19:07.420Z,16.57
2022-11-03T17:23:10.390Z,14.87
2022-11-03T17:27:19.679Z,15.00
2022-11-03T17:31:20.902Z,14.17
2022-11-03T17:35:24.115Z,19.30
2022-11-03T17:39:34.257Z,14.30
2022-11-03T17:43:38.178Z,15.87
2022-11-03T17:47:38.443Z,15.23
2022-11-03T17:51:45.645Z,16.57
2022-11-03T17:56:02.795Z,15.57
2022-11-03T18:00:10.733Z,17.03
2022-11-03T18:08:35.465Z,20.33
2022-11-03T18:12:58.039Z,18.07
2022-11-03T18:16:59.662Z,17.27
2022-11-03T18:21:01.328Z,15.17
2022-11-03T18:25:01.484Z,20.03
2022-11-03T18:29:04.333Z,21.27
2022-11-03T18:33:04.903Z,23.53
2022-11-03T18:37:05.982Z,21.87
2022-11-03T18:41:27.006Z,26.07
2022-11-03T18:45:29.764Z,18.40
2022-11-03T18:49:33.124Z,18.00
2022-11-03T18:53:34.186Z,28.57
2022-11-03T18:57:34.365Z,25.93
2022-11-03T19:01:37.163Z,38.37
2022-11-03T19:05:37.576Z,23.10
2022-11-03T19:09:37.773Z,22.37
2022-11-03T19:13:41.039Z,18.63
2022-11-03T19:17:43.758Z,19.00
2022-11-03T19:21:43.828Z,27.17
2022-11-03T19:25:46.070Z,25.83
2022-11-03T19:29:48.468Z,37.70
2022-11-03T19:33:51.984Z,35.87
2022-11-03T19:38:03.166Z,61.00
2022-11-03T19:42:18.013Z,56.63
2022-11-03T19:46:22.535Z,29.63
2022-11-03T19:50:29.653Z,40.20
2022-11-03T19:54:30.007Z,49.07
2022-11-03T19:58:32.213Z,51.47
2022-11-03T20:02:32.422Z,50.10
2022-11-03T20:06:37.857Z,29.37
2022-11-03T20:10:37.941Z,22.17
2022-11-03T20:14:38.119Z,19.93
2022-11-03T20:18:38.350Z,27.80
2022-11-03T20:22:43.714Z,24.53
2022-11-03T20:26:43.949Z,15.23
2022-11-03T20:30:44.040Z,15.17
2022-11-03T20:34:46.586Z,17.87
2022-11-03T20:38:55.778Z,16.40
2022-11-03T20:43:02.420Z,37.60
2022-11-03T20:47:04.228Z,40.37
2022-11-03T20:51:04.323Z,25.80
2022-11-03T20:55:18.520Z,49.47
2022-11-03T20:59:23.241Z,35.83
2022-11-03T21:03:57.646Z,26.33
2022-11-03T21:07:53.105Z,26.47
2022-11-03T21:11:57.215Z,22.00
2022-11-03T21:16:23.988Z,26.53
2022-11-03T21:20:24.829Z,23.07
2022-11-03T21:28:47.564Z,17.93
2022-11-03T21:32:47.977Z,24.73
2022-11-03T21:36:48.120Z,27.17
2022-11-03T21:40:55.243Z,19.33
2022-11-03T21:44:58.319Z,17.03
2022-11-03T21:49:10.897Z,17.23
2022-11-03T21:53:11.503Z,15.37
2022-11-03T21:57:15.265Z,19.20
2022-11-03T22:01:18.014Z,26.93
2022-11-03T22:05:18.492Z,21.00
2022-11-03T22:09:18.728Z,22.70
2022-11-03T22:13:18.899Z,31.00
2022-11-03T22:17:21.537Z,26.37
2022-11-03T22:21:34.106Z,26.17
2022-11-03T22:25:46.679Z,28.43
2022-11-03T22:29:59.294Z,27.87
2022-11-03T22:34:14.459Z,30.03
2022-11-03T22:38:17.124Z,22.90
2022-11-03T22:42:29.828Z,20.20
2022-11-03T22:46:30.007Z,19.90
2022-11-03T22:50:32.865Z,21.77
2022-11-03T22:54:32.988Z,17.57
2022-11-03T22:58:33.039Z,18.77
2022-11-03T23:02:33.355Z,24.00
2022-11-03T23:06:40.575Z,22.53
2022-11-03T23:10:40.842Z,19.83
2022-11-03T23:14:53.470Z,19.53
2022-11-03T23:19:07.032Z,22.20
2022-11-03T23:23:29.808Z,20.63
2022-11-03T23:27:30.114Z,19.20
2022-11-03T23:31:30.204Z,17.53
2022-11-03T23:35:30.535Z,14.63
2022-11-03T23:39:33.214Z,15.67
2022-11-03T23:43:33.499Z,14.10
2022-11-03T23:47:46.108Z,15.20
2022-11-03T23:51:46.478Z,12.77
2022-11-03T23:56:01.372Z,14.53
